Carnival Splendor — 3EUS — position and weather

sailwx.info

Track history (hours):
 
Tides and Currents Weather Stations Pressure Air Temp Water Temp Dewpoint Dewpoint Depression Visibility Wind Speed Wind Dir Waves Ship Positions

Carnival Splendor

Last reported at 2015-Jun-30 09:26 UTC. Time now 2015-Jul-06 04:51 UTC.
Position N 37°06' W 072°52'.

Length 289 m; draft 8.3 m.

Type: Ship. MMSI: 372808000.

Date/timePositionNaut miles runAvg speedWind from/ knotsBaromVisibWave heightAir tempDewpointWater temp
2015-Jun-30 09:26N 37°06' W 072°52'2017.9
2015-Jun-30 08:18N 37°27' W 072°53'1418.5
2015-Jun-30 07:32N 37°41' W 072°53'1919.0
2015-Jun-30 06:33N 37°59' W 072°54'2019.5
2015-Jun-30 05:33N 38°19' W 072°55'2019.6
2015-Jun-30 04:33N 38°39' W 072°56'1919.4
2015-Jun-30 03:33N 38°58' W 072°57'1919.4
2015-Jun-30 02:33N 39°17' W 072°57'1919.3
2015-Jun-30 01:33N 39°37' W 072°58'1918.8
2015-Jun-30 00:33N 39°52' W 073°12'2019.6
2015-Jun-29 23:33N 40°07' W 073°28'1918.9
2015-Jun-29 22:33N 40°22' W 073°44'1514.6
2015-Jun-29 21:34N 40°31' W 073°59'1312.6
2015-Jun-29 20:33N 40°43' W 074°01'3 3.0
2015-Jun-29 19:33N 40°46' W 073°60'0 0.0
2015-Jun-29 18:33N 40°46' W 073°60'0 0.0
2015-Jun-29 17:32N 40°46' W 073°60'0 0.0
2015-Jun-29 16:32N 40°46' W 073°60'0 0.0
2015-Jun-29 15:32N 40°46' W 073°60'0 0.0
2015-Jun-29 14:31N 40°46' W 073°60'0 0.0
2015-Jun-29 13:30N 40°46' W 073°60'0 0.0
2015-Jun-29 12:33N 40°46' W 073°60'0 0.0
2015-Jun-29 11:32N 40°46' W 073°60'2 1.7
2015-Jun-29 10:34N 40°45' W 074°01'1212.0
2015-Jun-29 09:34N 40°33' W 074°01'1212.0
2015-Jun-29 08:33N 40°27' W 073°47'4314.5
2015-Jun-29 05:33N 40°30' W 072°50'1818.1
2015-Jun-29 04:33N 40°30' W 072°27'1918.5
2015-Jun-29 03:33N 40°31' W 072°02'1918.8
2015-Jun-29 02:33N 40°31' W 071°38'1818.3
2015-Jun-29 01:33N 40°32' W 071°14'1817.9
2015-Jun-29 00:33N 40°32' W 070°50'1817.6
2015-Jun-28 23:33N 40°33' W 070°27'1817.6
2015-Jun-28 22:33N 40°33' W 070°04'1817.9
2015-Jun-28 21:33N 40°34' W 069°40'1818.1
2015-Jun-28 20:33N 40°34' W 069°16'2418.1
2015-Jun-28 19:13N 40°38' W 068°45'1015.2
2015-Jun-28 18:32N 40°40' W 068°31'26814.8
2015-Jun-28 00:23N 44°49' W 066°15'280 7.8
2015-Jun-26 12:32N 40°33' W 068°51'1917.5
2015-Jun-26 11:29N 40°26' W 069°14'1617.1
2015-Jun-26 10:33N 40°26' W 069°34'1717.3
2015-Jun-26 09:33N 40°25' W 069°57'1717.3
2015-Jun-26 08:33N 40°25' W 070°20'1716.9
2015-Jun-26 07:33N 40°24' W 070°42'1717.0
2015-Jun-26 06:33N 40°24' W 071°04'1717.1
2015-Jun-26 05:33N 40°24' W 071°27'1717.0
2015-Jun-26 04:33N 40°23' W 071°49'1717.0
2015-Jun-26 03:33N 40°23' W 072°11'1716.8
2015-Jun-26 02:33N 40°22' W 072°33'1716.9
2015-Jun-26 01:34N 40°22' W 072°56'1716.6
2015-Jun-26 00:33N 40°23' W 073°17'1716.8
2015-Jun-25 23:33N 40°25' W 073°39'1514.7
2015-Jun-25 22:33N 40°30' W 073°57'1312.9
2015-Jun-25 21:33N 40°43' W 074°01'4 3.5
2015-Jun-25 20:32N 40°46' W 073°60'0 0.0
2015-Jun-25 19:31N 40°46' W 073°60'0 0.0
2015-Jun-25 18:31N 40°46' W 073°60'0 0.0
2015-Jun-25 17:27N 40°46' W 073°60'0 0.0
2015-Jun-25 16:33N 40°46' W 073°60'0 0.0
2015-Jun-25 15:33N 40°46' W 073°60'0 0.0
2015-Jun-25 14:23N 40°46' W 073°60'0 0.0
2015-Jun-25 13:23N 40°46' W 073°60'0 0.0
2015-Jun-25 12:31N 40°46' W 073°60'0 0.0
2015-Jun-25 11:31N 40°46' W 073°60'1 1.4
2015-Jun-25 10:33N 40°45' W 074°01'1110.8
2015-Jun-25 09:33N 40°34' W 074°02'1212.4
2015-Jun-25 08:33N 40°27' W 073°49'1312.8
2015-Jun-25 07:33N 40°14' W 073°46'1615.5
2015-Jun-25 06:33N 39°59' W 073°43'1616.0
2015-Jun-25 05:33N 39°43' W 073°41'1717.5
2015-Jun-25 04:33N 39°26' W 073°38'1918.9
2015-Jun-25 03:33N 39°07' W 073°35'2119.1
2015-Jun-25 02:27N 38°46' W 073°31'5918.6
2015-Jun-24 23:17N 37°48' W 073°23'  
Track history (hours):
 
Tides and Currents Weather Stations Pressure Air Temp Water Temp Dewpoint Dewpoint Depression Visibility Wind Speed Wind Dir Waves Ship Positions

Carnival Splendor

Last reported at 2015-Jun-30 09:26 UTC. Time now 2015-Jul-06 04:51 UTC.
Position N 37°06' W 072°52'.

Length 289 m; draft 8.3 m.

Type: Ship. MMSI: 372808000.

Date/timePositionNaut miles runAvg speedWind from/ knotsBaromVisibWave heightAir tempDewpointWater temp
2015-Jun-30 09:26N 37°06' W 072°52'2017.9
2015-Jun-30 08:18N 37°27' W 072°53'1418.5
2015-Jun-30 07:32N 37°41' W 072°53'1919.0
2015-Jun-30 06:33N 37°59' W 072°54'2019.5
2015-Jun-30 05:33N 38°19' W 072°55'2019.6
2015-Jun-30 04:33N 38°39' W 072°56'1919.4
2015-Jun-30 03:33N 38°58' W 072°57'1919.4
2015-Jun-30 02:33N 39°17' W 072°57'1919.3
2015-Jun-30 01:33N 39°37' W 072°58'1918.8
2015-Jun-30 00:33N 39°52' W 073°12'2019.6
2015-Jun-29 23:33N 40°07' W 073°28'1918.9
2015-Jun-29 22:33N 40°22' W 073°44'1514.6
2015-Jun-29 21:34N 40°31' W 073°59'1312.6
2015-Jun-29 20:33N 40°43' W 074°01'3 3.0
2015-Jun-29 19:33N 40°46' W 073°60'0 0.0
2015-Jun-29 18:33N 40°46' W 073°60'0 0.0
2015-Jun-29 17:32N 40°46' W 073°60'0 0.0
2015-Jun-29 16:32N 40°46' W 073°60'0 0.0
2015-Jun-29 15:32N 40°46' W 073°60'0 0.0
2015-Jun-29 14:31N 40°46' W 073°60'0 0.0
2015-Jun-29 13:30N 40°46' W 073°60'0 0.0
2015-Jun-29 12:33N 40°46' W 073°60'0 0.0
2015-Jun-29 11:32N 40°46' W 073°60'2 1.7
2015-Jun-29 10:34N 40°45' W 074°01'1212.0
2015-Jun-29 09:34N 40°33' W 074°01'1212.0
2015-Jun-29 08:33N 40°27' W 073°47'4314.5
2015-Jun-29 05:33N 40°30' W 072°50'1818.1
2015-Jun-29 04:33N 40°30' W 072°27'1918.5
2015-Jun-29 03:33N 40°31' W 072°02'1918.8
2015-Jun-29 02:33N 40°31' W 071°38'1818.3
2015-Jun-29 01:33N 40°32' W 071°14'1817.9
2015-Jun-29 00:33N 40°32' W 070°50'1817.6
2015-Jun-28 23:33N 40°33' W 070°27'1817.6
2015-Jun-28 22:33N 40°33' W 070°04'1817.9
2015-Jun-28 21:33N 40°34' W 069°40'1818.1
2015-Jun-28 20:33N 40°34' W 069°16'2418.1
2015-Jun-28 19:13N 40°38' W 068°45'1015.2
2015-Jun-28 18:32N 40°40' W 068°31'26814.8
2015-Jun-28 00:23N 44°49' W 066°15'280 7.8
2015-Jun-26 12:32N 40°33' W 068°51'1917.5
2015-Jun-26 11:29N 40°26' W 069°14'1617.1
2015-Jun-26 10:33N 40°26' W 069°34'1717.3
2015-Jun-26 09:33N 40°25' W 069°57'1717.3
2015-Jun-26 08:33N 40°25' W 070°20'1716.9
2015-Jun-26 07:33N 40°24' W 070°42'1717.0
2015-Jun-26 06:33N 40°24' W 071°04'1717.1
2015-Jun-26 05:33N 40°24' W 071°27'1717.0
2015-Jun-26 04:33N 40°23' W 071°49'1717.0
2015-Jun-26 03:33N 40°23' W 072°11'1716.8
2015-Jun-26 02:33N 40°22' W 072°33'1716.9
2015-Jun-26 01:34N 40°22' W 072°56'1716.6
2015-Jun-26 00:33N 40°23' W 073°17'1716.8
2015-Jun-25 23:33N 40°25' W 073°39'1514.7
2015-Jun-25 22:33N 40°30' W 073°57'1312.9
2015-Jun-25 21:33N 40°43' W 074°01'4 3.5
2015-Jun-25 20:32N 40°46' W 073°60'0 0.0
2015-Jun-25 19:31N 40°46' W 073°60'0 0.0
2015-Jun-25 18:31N 40°46' W 073°60'0 0.0
2015-Jun-25 17:27N 40°46' W 073°60'0 0.0
2015-Jun-25 16:33N 40°46' W 073°60'0 0.0
2015-Jun-25 15:33N 40°46' W 073°60'0 0.0
2015-Jun-25 14:23N 40°46' W 073°60'0 0.0
2015-Jun-25 13:23N 40°46' W 073°60'0 0.0
2015-Jun-25 12:31N 40°46' W 073°60'0 0.0
2015-Jun-25 11:31N 40°46' W 073°60'1 1.4
2015-Jun-25 10:33N 40°45' W 074°01'1110.8
2015-Jun-25 09:33N 40°34' W 074°02'1212.4
2015-Jun-25 08:33N 40°27' W 073°49'1312.8
2015-Jun-25 07:33N 40°14' W 073°46'1615.5
2015-Jun-25 06:33N 39°59' W 073°43'1616.0
2015-Jun-25 05:33N 39°43' W 073°41'1717.5
2015-Jun-25 04:33N 39°26' W 073°38'1918.9
2015-Jun-25 03:33N 39°07' W 073°35'2119.1
2015-Jun-25 02:27N 38°46' W 073°31'5918.6
2015-Jun-24 23:17N 37°48' W 073°23'  

Dump ship's entire track history